Time;durP1;ratioP1;P1;durP2;ratioP2;P2;SDS_P1;SDS_P2;PMS_P1;PMS_P2;Temp;Humidity;BMP_temperature;BMP_pressure;BME280_temperature;BME280_humidity;BME280_pressure;Samples;Min_cycle;Max_cycle;Signal;HPM_P1;HPM_P2
2022/01/10 00:00:11;;;;;;;230.27;96.97;;;-5.50;99.90;;;-5.99;67.22;97978.09;4958816;28;20282;-82
2022/01/10 00:03:02;;;;;;;242.25;94.15;;;-5.50;99.90;;;-5.98;66.67;97969.19;4945047;28;20109;-82
2022/01/10 00:05:28;;;;;;;248.32;97.93;;;-5.50;99.90;;;-5.99;66.90;97980.75;4960235;28;20161;-82
2022/01/10 00:07:54;;;;;;;223.02;87.85;;;-5.50;99.90;;;-5.94;66.25;97988.91;4952618;28;20042;-82
2022/01/10 00:10:20;;;;;;;202.07;87.47;;;-5.50;99.90;;;-5.92;65.92;97994.00;4970330;28;20042;-81
2022/01/10 00:12:46;;;;;;;219.10;89.85;;;-5.50;99.90;;;-5.94;66.27;98001.31;4953651;28;20057;-82
2022/01/10 00:15:15;;;;;;;214.23;87.18;;;-5.50;99.90;;;-5.97;66.40;97993.78;4955799;28;20095;-82
2022/01/10 00:17:47;;;;;;;223.57;93.47;;;-5.50;99.90;;;-5.99;66.42;98003.69;4971669;28;20413;-82
2022/01/10 00:20:16;;;;;;;218.98;91.22;;;-5.50;99.90;;;-5.99;66.58;98004.50;4969711;28;20192;-82
2022/01/10 00:22:46;;;;;;;221.85;89.43;;;-5.50;99.90;;;-5.96;66.17;98009.41;4957010;28;20457;-81
2022/01/10 00:25:13;;;;;;;193.15;82.50;;;-5.50;99.90;;;-5.96;66.08;98008.59;4973969;28;20291;-82
2022/01/10 00:27:40;;;;;;;217.00;86.60;;;-5.50;99.90;;;-6.00;66.17;98017.91;4954998;28;20093;-82
2022/01/10 00:30:07;;;;;;;239.02;94.88;;;-5.50;99.90;;;-6.03;66.42;98018.25;4959327;28;20474;-82
2022/01/10 00:32:33;;;;;;;229.32;90.32;;;-5.50;99.90;;;-6.07;67.01;98017.84;4975006;28;20042;-82
2022/01/10 00:34:59;;;;;;;253.63;99.97;;;-5.50;99.90;;;-6.02;66.82;98020.72;4974983;28;20046;-82
2022/01/10 00:37:25;;;;;;;263.02;101.07;;;-5.50;99.90;;;-5.98;66.29;98022.00;4954506;28;20039;-82
2022/01/10 00:39:50;;;;;;;259.00;108.10;;;-5.50;99.90;;;-5.93;66.22;98021.38;4980805;28;20078;-82
2022/01/10 00:42:17;;;;;;;287.73;115.60;;;-5.50;99.90;;;-5.93;66.48;98024.03;4960502;28;20045;-82
2022/01/10 00:44:51;;;;;;;278.85;114.25;;;-5.50;99.90;;;-5.90;66.84;98029.78;4956207;28;20038;-82
2022/01/10 00:47:17;;;;;;;236.32;97.38;;;-5.50;99.90;;;-5.85;67.21;98037.13;4958940;28;20042;-82
2022/01/10 00:49:44;;;;;;;245.85;99.03;;;-5.40;99.90;;;-5.86;66.97;98029.41;4970803;28;20065;-82
2022/01/10 00:52:10;;;;;;;242.45;96.55;;;-5.40;99.90;;;-5.90;66.67;98035.06;4972875;28;20125;-82
2022/01/10 00:54:36;;;;;;;258.83;101.35;;;-5.40;99.90;;;-5.93;66.82;98037.22;4958210;28;20046;-82
2022/01/10 00:57:02;;;;;;;237.50;97.97;;;-5.40;99.90;;;-5.92;66.44;98037.06;4940214;28;20458;-82
2022/01/10 00:59:28;;;;;;;256.77;97.03;;;-5.50;99.90;;;-5.92;66.50;98042.34;4957594;28;20047;-82
2022/01/10 01:01:54;;;;;;;236.05;93.90;;;-5.50;99.90;;;-5.90;66.02;98050.91;4974045;28;20039;-82
2022/01/10 01:04:20;;;;;;;241.23;94.13;;;-5.50;99.90;;;-5.89;65.85;98044.59;4957903;28;20072;-82
2022/01/10 01:06:47;;;;;;;237.80;96.93;;;-5.50;99.90;;;-5.91;65.88;98046.59;4958242;28;20118;-82
2022/01/10 01:09:16;;;;;;;227.98;94.47;;;-5.40;99.90;;;-5.88;65.89;98055.97;4960658;28;20484;-82
2022/01/10 01:17:11;;;;;;;226.45;93.57;;;-5.50;99.90;;;-5.98;65.86;98061.63;4961695;28;20417;-82
2022/01/10 01:25:08;;;;;;;309.73;121.95;;;-5.50;99.90;;;-5.93;65.88;98064.50;4976130;28;20062;-82
2022/01/10 01:27:34;;;;;;;265.50;97.50;;;-5.50;99.90;;;-5.91;65.43;98067.72;4957620;28;20047;-82
2022/01/10 01:29:59;;;;;;;233.70;91.68;;;-5.50;99.90;;;-5.89;65.85;98068.38;4960512;28;20073;-81
2022/01/10 01:32:26;;;;;;;239.02;98.50;;;-5.50;99.90;;;-5.89;65.88;98063.09;4965461;28;20541;-81
2022/01/10 01:34:56;;;;;;;250.23;103.60;;;-5.40;99.90;;;-5.85;66.25;98065.34;4957356;28;20070;-81
2022/01/10 01:37:22;;;;;;;247.63;97.68;;;-5.40;99.90;;;-5.83;66.21;98072.09;4972463;28;20391;-82
2022/01/10 01:39:48;;;;;;;268.02;101.45;;;-5.40;99.90;;;-5.82;66.48;98076.38;4946576;28;20537;-82
2022/01/10 01:42:32;;;;;;;276.30;112.28;;;-5.40;99.90;;;-5.83;67.23;98077.38;4958702;28;20085;-82
2022/01/10 01:44:59;;;;;;;267.55;105.28;;;-5.30;99.90;;;-5.78;67.25;98082.09;4977042;28;20046;-82
2022/01/10 01:47:24;;;;;;;284.95;110.30;;;-5.30;99.90;;;-5.73;66.92;98079.72;4960545;28;20073;-81
2022/01/10 01:49:50;;;;;;;282.50;108.03;;;-5.30;99.90;;;-5.69;66.41;98081.81;4962451;28;20075;-81
2022/01/10 01:52:16;;;;;;;282.90;104.40;;;-5.30;99.90;;;-5.69;65.95;98083.63;4955159;28;20411;-81
2022/01/10 01:54:42;;;;;;;295.55;111.20;;;-5.20;99.90;;;-5.70;66.03;98089.91;4926540;28;20127;-81
2022/01/10 01:57:09;;;;;;;300.02;112.57;;;-5.30;99.90;;;-5.72;65.73;98084.81;4979369;28;20109;-81
2022/01/10 01:59:38;;;;;;;296.55;107.20;;;-5.30;99.90;;;-5.72;65.41;98091.94;4956421;28;20125;-81
2022/01/10 02:02:04;;;;;;;270.95;98.18;;;-5.30;99.90;;;-5.76;65.46;98088.84;4952932;28;20038;-81
2022/01/10 02:04:30;;;;;;;275.75;104.22;;;-5.30;99.90;;;-5.78;65.23;98090.03;4978260;28;20113;-81
2022/01/10 02:06:56;;;;;;;263.40;97.72;;;-5.40;99.90;;;-5.81;65.06;98101.78;4957088;28;20493;-81
2022/01/10 02:09:22;;;;;;;268.23;102.95;;;-5.40;99.90;;;-5.81;65.02;98100.97;4955171;28;20061;-81
2022/01/10 02:11:48;;;;;;;287.52;101.43;;;-5.40;99.90;;;-5.81;65.28;98101.78;4973369;28;20461;-81
2022/01/10 02:14:18;;;;;;;279.35;100.93;;;-5.40;99.90;;;-5.78;65.05;98105.88;4967709;28;20138;-81
2022/01/10 02:16:52;;;;;;;233.18;92.13;;;-5.40;99.90;;;-5.80;65.00;98108.72;4941623;28;20441;-81
2022/01/10 02:19:18;;;;;;;220.18;84.03;;;-5.40;99.90;;;-5.80;64.85;98115.78;4970291;28;20038;-81
2022/01/10 02:21:44;;;;;;;254.95;80.38;;;-5.40;99.90;;;-5.81;64.86;98111.53;4975977;28;20624;-80
2022/01/10 02:24:10;;;;;;;182.80;75.95;;;-5.40;99.90;;;-5.83;64.90;98114.34;4971541;28;20133;-81
2022/01/10 02:26:37;;;;;;;192.10;75.75;;;-5.40;99.90;;;-5.83;64.70;98118.81;4961801;28;20125;-81
2022/01/10 02:29:04;;;;;;;205.45;75.97;;;-5.40;99.90;;;-5.85;64.85;98120.81;4974667;28;20042;-81
2022/01/10 02:31:34;;;;;;;165.27;67.78;;;-5.40;99.90;;;-5.86;65.18;98119.19;4974505;28;20047;-81
2022/01/10 02:34:00;;;;;;;175.73;70.30;;;-5.40;99.90;;;-5.84;65.22;98130.41;4971672;28;20496;-81
2022/01/10 02:36:27;;;;;;;161.75;67.55;;;-5.40;99.90;;;-5.85;65.10;98118.19;4941660;28;20065;-81
2022/01/10 02:39:15;;;;;;;163.27;68.18;;;-5.40;99.90;;;-5.83;65.36;98124.91;4956155;28;20050;-81
2022/01/10 02:41:43;;;;;;;179.30;74.20;;;-5.40;99.90;;;-5.86;65.60;98122.66;4953303;28;20121;-81
2022/01/10 02:44:11;;;;;;;201.75;77.43;;;-5.40;99.90;;;-5.86;65.65;98121.84;4953212;28;20049;-81
2022/01/10 02:46:37;;;;;;;223.18;85.75;;;-5.40;99.90;;;-5.88;65.42;98127.28;4960154;28;20141;-81
2022/01/10 02:49:13;;;;;;;261.88;101.35;;;-5.40;99.90;;;-5.89;66.10;98128.31;4953945;28;20066;-81
2022/01/10 02:51:39;;;;;;;268.48;100.80;;;-5.40;99.90;;;-5.94;66.29;98131.53;4968424;28;20078;-81
2022/01/10 02:54:07;;;;;;;220.20;90.13;;;-5.40;99.90;;;-5.92;66.36;98133.97;4955273;28;20141;-81
2022/01/10 02:56:51;;;;;;;223.40;87.75;;;-5.40;99.90;;;-5.99;65.79;98135.72;4955328;28;20046;-81
2022/01/10 02:59:18;;;;;;;230.15;90.53;;;-5.40;99.90;;;-6.02;65.84;98138.75;4958918;28;20482;-81
2022/01/10 03:01:44;;;;;;;222.05;87.13;;;-5.50;99.90;;;-6.01;66.00;98140.38;4955349;28;20569;-81
2022/01/10 03:04:11;;;;;;;216.77;83.60;;;-5.50;99.90;;;-6.00;65.85;98137.56;4968902;28;20046;-81
2022/01/10 03:06:38;;;;;;;238.43;91.90;;;-5.50;99.90;;;-6.03;66.17;98143.22;4967785;28;20384;-81
2022/01/10 03:09:06;;;;;;;229.68;90.07;;;-5.50;99.90;;;-6.04;66.02;98143.38;4955129;28;20394;-81
2022/01/10 03:11:36;;;;;;;246.15;94.82;;;-5.50;99.90;;;-6.02;65.68;98150.13;4973896;28;20042;-81
2022/01/10 03:14:02;;;;;;;257.48;96.30;;;-5.60;99.90;;;-6.03;65.53;98151.13;4954748;28;20097;-81
2022/01/10 03:16:28;;;;;;;219.77;89.60;;;-5.60;99.90;;;-6.04;65.35;98157.41;4957687;28;20050;-81
2022/01/10 03:18:54;;;;;;;200.57;84.05;;;-5.60;99.90;;;-6.08;65.08;98161.44;4970554;28;20129;-81
2022/01/10 03:21:20;;;;;;;228.98;88.57;;;-5.60;99.90;;;-6.10;64.81;98163.44;4955762;28;20524;-81
2022/01/10 03:23:51;;;;;;;248.48;102.32;;;-5.60;99.90;;;-6.12;64.79;98168.06;4958554;28;20042;-81
2022/01/10 03:26:18;;;;;;;256.15;101.53;;;-5.70;99.90;;;-6.12;64.88;98168.88;4984361;28;20042;-80
2022/01/10 03:28:44;;;;;;;250.35;98.07;;;-5.70;99.90;;;-6.13;64.66;98164.59;4956892;28;20169;-80
2022/01/10 03:31:10;;;;;;;247.82;102.43;;;-5.60;99.90;;;-6.16;64.90;98167.59;4954898;28;20359;-81
2022/01/10 03:33:36;;;;;;;231.27;100.30;;;-5.70;99.90;;;-6.17;64.62;98173.88;4942529;28;20512;-81
2022/01/10 03:36:03;;;;;;;249.95;99.35;;;-5.70;99.90;;;-6.15;64.63;98187.72;4971886;28;20046;-81
2022/01/10 03:38:29;;;;;;;260.80;107.35;;;-5.70;99.90;;;-6.20;64.58;98181.34;4969479;28;20046;-81
2022/01/10 03:40:54;;;;;;;237.63;101.90;;;-5.70;99.90;;;-6.23;64.68;98184.34;4970304;28;20225;-80
2022/01/10 03:43:20;;;;;;;268.30;105.88;;;-5.70;99.90;;;-6.21;65.07;98182.34;4953857;28;20124;-80
2022/01/10 03:45:46;;;;;;;249.43;100.13;;;-5.80;99.90;;;-6.24;64.66;98190.63;4956800;28;20121;-80
2022/01/10 03:48:12;;;;;;;257.02;104.60;;;-5.70;99.90;;;-6.28;64.84;98191.97;4940741;28;20129;-82
2022/01/10 03:50:38;;;;;;;246.18;100.30;;;-5.80;99.90;;;-6.28;64.53;98192.81;4960748;28;20097;-81
2022/01/10 03:53:04;;;;;;;247.18;100.03;;;-5.80;99.90;;;-6.32;64.54;98198.63;4956011;28;20035;-82
2022/01/10 03:55:30;;;;;;;233.52;92.63;;;-5.80;99.90;;;-6.35;64.47;98203.28;4955501;28;20081;-82
2022/01/10 03:57:56;;;;;;;242.25;92.78;;;-5.90;99.90;;;-6.35;64.38;98205.09;4968596;28;20125;-81
2022/01/10 04:00:22;;;;;;;229.00;95.05;;;-5.90;99.90;;;-6.39;64.29;98198.53;4970041;28;20103;-81
2022/01/10 04:02:57;;;;;;;237.20;103.45;;;-5.90;99.90;;;-6.40;64.96;98204.81;4952187;28;20580;-81
2022/01/10 04:05:23;;;;;;;221.40;90.85;;;-5.90;99.90;;;-6.42;64.68;98212.91;4958637;28;20398;-81
2022/01/10 04:07:49;;;;;;;239.27;95.63;;;-5.90;99.90;;;-6.45;64.59;98215.91;4954158;28;20069;-81
2022/01/10 04:10:15;;;;;;;230.90;89.22;;;-5.90;99.90;;;-6.47;64.63;98211.81;4966524;28;20038;-81
2022/01/10 04:12:41;;;;;;;215.55;89.38;;;-6.00;99.90;;;-6.49;64.21;98221.72;4973776;28;20497;-81
2022/01/10 04:15:08;;;;;;;224.13;90.03;;;-6.00;99.90;;;-6.53;64.26;98210.72;4975928;28;20049;-82
2022/01/10 04:17:35;;;;;;;205.93;80.53;;;-6.00;99.90;;;-6.57;64.40;98220.78;4971704;28;20070;-81
2022/01/10 04:20:02;;;;;;;204.75;85.70;;;-6.00;99.90;;;-6.64;64.14;98221.69;4956939;28;20125;-81
2022/01/10 04:22:28;;;;;;;217.55;86.85;;;-6.10;99.90;;;-6.67;64.37;98227.31;4970410;28;20053;-81
2022/01/10 04:24:54;;;;;;;217.85;86.88;;;-6.10;99.90;;;-6.70;64.71;98232.94;4975213;28;20074;-81
2022/01/10 04:27:20;;;;;;;217.70;85.18;;;-6.10;99.90;;;-6.69;64.55;98235.41;4974436;28;20573;-81
2022/01/10 04:29:46;;;;;;;200.18;82.40;;;-6.20;99.90;;;-6.67;64.59;98243.94;4980324;28;20066;-81
2022/01/10 04:32:12;;;;;;;231.52;87.78;;;-6.20;99.90;;;-6.65;64.42;98252.50;4957906;28;20528;-81
2022/01/10 04:34:39;;;;;;;224.38;86.53;;;-6.20;99.90;;;-6.67;64.45;98253.69;4994218;28;20046;-81
2022/01/10 04:37:06;;;;;;;205.95;84.18;;;-6.20;99.90;;;-6.76;64.46;98252.94;4955612;28;20038;-81
2022/01/10 04:39:33;;;;;;;202.98;79.35;;;-6.20;99.90;;;-6.75;64.66;98261.69;4973903;28;20054;-81
2022/01/10 04:41:59;;;;;;;201.02;78.45;;;-6.20;99.90;;;-6.75;64.39;98261.69;4977282;28;20552;-81
2022/01/10 04:44:25;;;;;;;214.20;84.40;;;-6.30;99.90;;;-6.80;63.85;98270.91;4958142;28;20125;-79
2022/01/10 04:46:51;;;;;;;222.30;87.53;;;-6.30;99.90;;;-6.83;64.31;98266.00;4958418;28;20410;-80
2022/01/10 04:49:21;;;;;;;249.25;107.03;;;-6.30;99.90;;;-6.87;64.91;98264.72;4970013;28;20056;-80
2022/01/10 04:51:50;;;;;;;209.98;88.68;;;-6.30;99.90;;;-6.85;65.05;98281.19;4989427;28;20579;-80
2022/01/10 04:54:17;;;;;;;723.17;131.90;;;-6.30;99.90;;;-6.87;65.36;98277.06;4973413;28;20077;-80
2022/01/10 04:56:43;;;;;;;265.77;107.10;;;-6.30;99.90;;;-6.82;66.29;98280.00;4980299;28;20121;-80
2022/01/10 04:59:10;;;;;;;276.58;106.63;;;-6.30;99.90;;;-6.82;66.21;98285.28;4978285;28;20038;-80
2022/01/10 05:01:36;;;;;;;258.92;106.30;;;-6.30;99.90;;;-6.87;66.20;98293.75;4978966;28;20401;-80
2022/01/10 05:04:02;;;;;;;286.40;110.63;;;-6.30;99.90;;;-6.89;65.58;98295.72;4970058;28;20034;-80
2022/01/10 05:06:28;;;;;;;291.90;121.20;;;-6.30;99.90;;;-6.89;65.66;98305.47;4987331;28;20050;-80
2022/01/10 05:08:54;;;;;;;315.02;123.03;;;-6.40;99.90;;;-6.89;65.33;98319.47;4945897;28;20853;-79
2022/01/10 05:11:20;;;;;;;299.17;118.18;;;-6.40;99.90;;;-6.89;65.25;98311.53;4971911;28;20518;-80
2022/01/10 05:13:47;;;;;;;285.50;119.05;;;-6.40;99.90;;;-6.93;64.69;98312.88;4974172;28;20038;-80
2022/01/10 05:16:14;;;;;;;270.80;105.55;;;-6.40;99.90;;;-6.97;64.36;98319.50;4955856;28;20105;-80
2022/01/10 05:18:40;;;;;;;262.70;108.78;;;-6.50;99.90;;;-6.99;64.18;98318.84;4957817;28;20057;-80
2022/01/10 05:21:06;;;;;;;233.65;95.22;;;-6.50;99.90;;;-7.07;64.36;98321.50;4994113;28;20062;-80
2022/01/10 05:23:32;;;;;;;255.45;101.75;;;-6.50;99.90;;;-7.12;64.24;98324.69;4958527;28;20050;-80
2022/01/10 05:25:58;;;;;;;216.75;85.72;;;-6.60;99.90;;;-7.19;63.90;98328.19;4973282;28;20034;-79
2022/01/10 05:28:24;;;;;;;250.23;96.95;;;-6.60;99.90;;;-7.27;64.36;98331.69;4968824;28;20081;-79
2022/01/10 05:30:51;;;;;;;279.83;107.25;;;-6.70;99.90;;;-7.32;64.34;98337.47;4954625;28;20180;-79
2022/01/10 05:33:18;;;;;;;319.70;128.50;;;-6.70;99.90;;;-7.31;64.84;98340.91;4974145;28;20501;-79
2022/01/10 05:35:44;;;;;;;404.10;162.88;;;-6.80;99.90;;;-7.28;64.59;98351.09;4973476;28;20056;-79
2022/01/10 05:38:11;;;;;;;354.08;135.15;;;-6.80;99.90;;;-7.30;64.48;98353.09;4972842;28;20050;-80
2022/01/10 05:40:37;;;;;;;274.80;108.35;;;-6.80;99.90;;;-7.33;64.59;98351.59;4936258;28;20126;-80
2022/01/10 05:43:06;;;;;;;307.52;116.28;;;-6.80;99.90;;;-7.33;64.46;98356.88;4951880;28;20047;-79
2022/01/10 05:45:32;;;;;;;463.92;185.15;;;-6.80;99.90;;;-7.30;64.23;98358.34;4950518;28;20043;-80
2022/01/10 05:48:06;;;;;;;314.63;125.13;;;-6.80;99.90;;;-7.32;63.74;98363.81;4933000;29;20507;-79
2022/01/10 05:50:34;;;;;;;269.67;110.65;;;-6.80;99.90;;;-7.35;63.80;98369.44;4902484;29;20067;-79
2022/01/10 05:53:01;;;;;;;236.15;93.22;;;-6.80;99.90;;;-7.34;64.10;98373.69;4950417;28;20039;-80
2022/01/10 05:55:27;;;;;;;209.95;83.80;;;-6.80;99.90;;;-7.35;63.97;98381.75;4918486;29;20055;-80
2022/01/10 05:57:53;;;;;;;209.23;79.90;;;-6.80;99.90;;;-7.34;63.77;98378.16;4918965;29;20049;-80
2022/01/10 06:00:19;;;;;;;196.13;80.05;;;-6.80;99.90;;;-7.37;64.11;98376.69;4948513;28;20411;-82
2022/01/10 06:02:45;;;;;;;212.90;83.72;;;-6.80;99.90;;;-7.33;64.14;98385.06;4918447;29;20079;-80
2022/01/10 06:05:11;;;;;;;205.82;84.15;;;-6.80;99.90;;;-7.34;63.92;98400.03;4934836;29;20145;-80
2022/01/10 06:07:37;;;;;;;213.90;90.43;;;-6.80;99.90;;;-7.32;63.96;98403.34;4931934;29;20379;-80
2022/01/10 06:10:04;;;;;;;237.90;96.68;;;-6.80;99.90;;;-7.30;63.93;98411.91;4932859;29;20436;-80
2022/01/10 06:12:30;;;;;;;218.98;92.43;;;-6.70;99.90;;;-7.32;63.35;98424.41;4918382;28;20385;-80
2022/01/10 06:14:56;;;;;;;235.93;90.57;;;-6.70;99.90;;;-7.32;63.81;98444.69;4918750;29;20043;-80
2022/01/10 06:17:22;;;;;;;212.18;88.70;;;-6.70;99.90;;;-7.38;64.08;98451.44;4917268;29;20063;-80
2022/01/10 06:19:48;;;;;;;209.98;84.65;;;-6.80;99.90;;;-7.38;63.77;98461.97;4934484;29;20043;-80
2022/01/10 06:22:14;;;;;;;212.25;85.25;;;-6.80;99.90;;;-7.37;64.08;98465.44;4914071;28;20173;-80
2022/01/10 06:24:40;;;;;;;213.05;83.18;;;-6.70;99.90;;;-7.33;64.05;98461.47;4934314;29;20031;-80
2022/01/10 06:27:06;;;;;;;229.05;88.20;;;-6.80;99.90;;;-7.31;63.84;98478.75;4914320;29;20106;-80
2022/01/10 06:29:32;;;;;;;221.90;88.18;;;-6.70;99.90;;;-7.33;64.13;98486.00;4931791;29;20454;-80
2022/01/10 06:31:58;;;;;;;229.35;87.00;;;-6.70;99.90;;;-7.37;64.00;98489.97;4946499;28;20050;-80
2022/01/10 06:34:24;;;;;;;247.80;97.22;;;-6.70;99.90;;;-7.40;63.97;98495.59;4916385;29;20086;-80
2022/01/10 06:36:50;;;;;;;254.15;101.03;;;-6.70;99.90;;;-7.38;64.40;98504.13;4925443;29;20125;-80
2022/01/10 06:39:16;;;;;;;221.13;90.47;;;-6.70;99.90;;;-7.37;64.92;98499.69;4922059;28;20055;-80
2022/01/10 06:41:42;;;;;;;238.30;95.82;;;-6.70;99.90;;;-7.31;64.77;98505.09;4965094;28;20038;-80
2022/01/10 06:44:08;;;;;;;257.42;108.68;;;-6.70;99.90;;;-7.22;65.33;98514.66;4951887;28;20137;-80
2022/01/10 06:46:34;;;;;;;254.57;106.38;;;-6.70;99.90;;;-7.14;65.68;98518.28;4945108;28;20102;-80
2022/01/10 06:49:00;;;;;;;253.15;103.15;;;-6.50;99.90;;;-7.06;66.63;98524.34;4963324;28;20126;-79
2022/01/10 06:51:26;;;;;;;285.52;111.82;;;-6.50;99.90;;;-6.93;66.82;98534.38;4948479;28;20129;-79
2022/01/10 06:53:52;;;;;;;288.77;112.90;;;-6.40;99.90;;;-6.84;66.54;98538.66;4934764;28;20061;-80
2022/01/10 06:56:21;;;;;;;317.58;129.63;;;-6.30;99.90;;;-6.76;66.28;98545.72;4964367;28;20066;-80
2022/01/10 06:58:47;;;;;;;252.70;107.40;;;-6.10;99.90;;;-6.75;65.80;98552.63;4947783;28;20416;-81
2022/01/10 07:01:17;;;;;;;247.90;99.30;;;-6.10;99.90;;;-6.73;65.83;98555.09;4934194;28;20613;-80
2022/01/10 07:03:44;;;;;;;420.65;168.55;;;-6.10;99.90;;;-6.67;65.65;98552.59;4964873;28;20035;-80
2022/01/10 07:06:11;;;;;;;363.08;137.98;;;-6.10;99.90;;;-6.65;65.76;98568.28;4962421;28;20049;-80
2022/01/10 07:08:36;;;;;;;366.35;153.80;;;-6.00;99.90;;;-6.57;65.85;98571.69;4967735;28;20035;-80
2022/01/10 07:11:02;;;;;;;330.92;139.07;;;-5.90;99.90;;;-6.47;65.62;98565.41;4952068;28;20121;-79
2022/01/10 07:13:29;;;;;;;330.90;131.60;;;-5.80;99.90;;;-6.37;65.69;98580.03;4948908;28;20125;-80
2022/01/10 07:15:55;;;;;;;375.58;149.48;;;-5.80;99.90;;;-6.28;65.10;98582.66;4961316;28;20047;-80
2022/01/10 07:18:21;;;;;;;336.73;134.55;;;-5.70;99.90;;;-6.23;64.86;98586.44;4948903;28;20086;-79
2022/01/10 07:20:47;;;;;;;323.33;130.65;;;-5.60;99.90;;;-6.13;64.83;98597.63;4934346;28;20185;-80
2022/01/10 07:23:13;;;;;;;315.48;127.05;;;-5.50;99.90;;;-6.02;64.78;98601.69;4947876;28;20474;-80
2022/01/10 07:25:38;;;;;;;282.10;114.90;;;-5.40;99.90;;;-5.90;64.46;98607.38;4944866;28;20121;-79
2022/01/10 07:28:05;;;;;;;285.45;117.15;;;-5.40;99.90;;;-5.81;63.80;98608.16;4949469;28;20455;-79
2022/01/10 07:30:30;;;;;;;300.88;116.88;;;-5.30;99.90;;;-5.78;64.10;98613.91;4933336;28;20543;-79
2022/01/10 07:32:56;;;;;;;276.02;108.63;;;-5.20;99.90;;;-5.69;63.84;98609.41;4947867;28;20062;-80
2022/01/10 07:35:23;;;;;;;286.25;111.05;;;-5.10;99.90;;;-5.57;64.08;98607.19;4960713;28;20051;-80
2022/01/10 07:37:48;;;;;;;275.10;109.97;;;-5.00;99.90;;;-5.45;63.90;98609.22;4946397;28;20126;-80
2022/01/10 07:40:14;;;;;;;276.05;113.03;;;-4.90;99.90;;;-5.36;63.63;98625.88;4960043;28;20137;-80
2022/01/10 07:42:41;;;;;;;243.27;100.55;;;-4.80;99.90;;;-5.28;64.13;98617.06;4949549;28;20214;-79
2022/01/10 07:45:07;;;;;;;184.70;82.05;;;-4.70;99.90;;;-5.15;65.48;98630.50;4948192;28;20062;-80
2022/01/10 07:47:33;;;;;;;194.65;81.45;;;-4.50;99.90;;;-4.91;67.00;98639.25;4949765;28;20109;-80
2022/01/10 07:49:59;;;;;;;172.55;76.32;;;-4.40;99.90;;;-4.68;67.79;98640.06;4949900;28;20049;-80
2022/01/10 07:52:26;;;;;;;168.23;74.10;;;-4.10;99.90;;;-4.40;68.31;98647.38;4933374;28;20113;-80
2022/01/10 07:54:53;;;;;;;162.88;74.88;;;-3.90;99.90;;;-4.15;68.53;98659.38;4951152;28;20483;-80
2022/01/10 07:57:19;;;;;;;161.70;72.07;;;-3.60;99.90;;;-3.95;68.44;98658.81;4965913;28;20125;-80
2022/01/10 07:59:45;;;;;;;168.63;69.05;;;-3.30;99.90;;;-3.78;68.62;98665.56;4949857;28;20054;-80
2022/01/10 08:02:11;;;;;;;157.68;69.80;;;-3.10;99.90;;;-3.62;68.32;98674.31;4966139;28;20049;-79
2022/01/10 08:04:37;;;;;;;162.90;74.85;;;-2.90;99.90;;;-3.53;68.29;98678.50;4964947;28;20094;-79
2022/01/10 08:07:06;;;;;;;156.60;69.38;;;-2.80;99.90;;;-3.42;68.37;98680.66;4966234;28;20411;-80
2022/01/10 08:09:32;;;;;;;162.95;70.40;;;-2.70;99.90;;;-3.33;67.75;98678.72;4965432;28;20058;-79
2022/01/10 08:12:02;;;;;;;177.90;84.53;;;-2.60;99.90;;;-3.17;68.13;98686.44;4949237;28;20041;-79
2022/01/10 08:14:31;;;;;;;149.20;68.50;;;-2.40;99.90;;;-3.00;67.76;98695.00;4966668;28;20065;-80
2022/01/10 08:16:57;;;;;;;146.45;67.90;;;-2.30;99.90;;;-2.92;67.15;98702.03;4965361;28;20046;-79
2022/01/10 08:19:23;;;;;;;163.75;68.85;;;-2.10;99.90;;;-2.83;67.41;98707.00;4952460;28;20560;-79
2022/01/10 08:21:49;;;;;;;153.20;64.07;;;-2.00;99.90;;;-2.72;67.58;98712.78;4950049;28;20066;-79
2022/01/10 08:24:15;;;;;;;135.27;61.95;;;-2.00;99.90;;;-2.60;66.82;98727.22;4950238;28;20456;-79
2022/01/10 08:26:42;;;;;;;131.23;56.85;;;-1.80;99.90;;;-2.52;66.78;98724.44;4967144;28;20115;-80
2022/01/10 08:29:08;;;;;;;133.38;60.08;;;-1.80;99.90;;;-2.44;66.92;98724.31;4968907;28;20491;-79
2022/01/10 08:31:34;;;;;;;133.02;62.80;;;-1.70;99.90;;;-2.32;66.70;98729.09;4951126;28;20922;-79
2022/01/10 08:34:03;;;;;;;119.40;53.38;;;-1.50;99.90;;;-2.17;66.73;98743.09;4966213;28;20042;-79
2022/01/10 08:36:32;;;;;;;122.15;54.42;;;-1.40;99.90;;;-2.11;66.51;98738.84;4937455;28;20036;-79
2022/01/10 08:38:58;;;;;;;104.22;48.22;;;-1.20;99.90;;;-2.05;67.09;98744.22;4949017;29;20044;-79
2022/01/10 08:41:24;;;;;;;102.00;48.10;;;-1.20;99.90;;;-2.05;67.21;98746.06;4936153;29;20134;-79
2022/01/10 08:43:50;;;;;;;120.32;49.38;;;-1.20;99.90;;;-1.92;67.53;98754.13;4937413;29;20126;-79
2022/01/10 08:46:16;;;;;;;110.78;46.88;;;-1.10;99.90;;;-1.84;67.77;98748.66;4935748;29;20047;-79
2022/01/10 08:48:42;;;;;;;110.18;46.22;;;-1.00;99.90;;;-1.69;67.43;98753.84;4951712;29;20050;-78
2022/01/10 08:51:08;;;;;;;103.28;44.72;;;-1.00;99.90;;;-1.51;67.30;98753.34;4915204;29;20039;-79
2022/01/10 08:53:34;;;;;;;91.80;40.53;;;-0.80;99.90;;;-1.54;66.94;98765.19;4936167;29;20047;-78
2022/01/10 08:56:00;;;;;;;120.03;50.58;;;-0.70;99.90;;;-1.45;67.47;98773.00;4921867;29;20515;-79
2022/01/10 08:58:32;;;;;;;92.45;39.17;;;-0.70;99.90;;;-1.35;67.49;98774.31;4920757;29;20082;-79
2022/01/10 09:01:02;;;;;;;;;;;-0.60;99.90;;;-1.23;67.22;98771.91;4935558;28;21296;-79
2022/01/10 09:03:28;;;;;;;84.05;34.53;;;-0.40;99.90;;;-1.20;67.25;98778.66;4935163;28;19933;-80
2022/01/10 09:05:55;;;;;;;82.72;33.13;;;-0.40;99.90;;;-1.18;67.05;98785.44;4951253;28;20122;-79
2022/01/10 09:08:23;;;;;;;80.60;33.33;;;-0.30;99.90;;;-1.13;66.98;98782.19;4917267;29;20043;-79
2022/01/10 09:10:49;;;;;;;92.10;36.67;;;-0.20;99.90;;;-0.98;67.21;98790.03;4918836;29;20047;-79
2022/01/10 09:13:15;;;;;;;150.90;65.50;;;-0.20;99.90;;;-0.81;67.47;98787.84;4934874;29;20523;-78
2022/01/10 09:15:41;;;;;;;78.90;33.88;;;-0.10;99.90;;;-0.70;66.97;98787.25;4919459;29;20284;-78
2022/01/10 09:18:07;;;;;;;75.50;32.08;;;0.00;99.90;;;-0.65;66.42;98790.13;4933406;29;20053;-79
2022/01/10 09:20:33;;;;;;;81.03;37.22;;;0.10;99.90;;;-0.56;67.16;98788.91;4935097;29;20047;-79
2022/01/10 09:22:59;;;;;;;72.25;30.65;;;0.20;99.90;;;-0.43;66.97;98796.13;4950326;28;20790;-79
2022/01/10 09:25:25;;;;;;;86.82;41.65;;;0.30;99.90;;;-0.23;66.52;98786.28;4932583;29;20675;-79
2022/01/10 09:27:51;;;;;;;67.97;30.70;;;0.40;99.90;;;-0.14;66.42;98791.41;4953303;28;20082;-79
2022/01/10 09:30:17;;;;;;;66.35;28.65;;;0.60;99.90;;;-0.06;65.91;98794.69;4950201;29;20039;-79
2022/01/10 09:32:43;;;;;;;144.35;69.28;;;0.70;99.90;;;0.05;66.15;98790.63;4951816;28;20559;-79
2022/01/10 09:35:10;;;;;;;58.20;29.02;;;0.80;99.90;;;0.09;65.22;98786.50;4920560;29;20046;-79
2022/01/10 09:37:35;;;;;;;97.63;47.17;;;0.80;99.90;;;0.09;65.87;98794.50;4935614;29;20818;-79
2022/01/10 09:40:02;;;;;;;63.88;29.25;;;0.90;99.90;;;0.14;65.04;98797.34;4939564;28;20186;-79
2022/01/10 09:42:29;;;;;;;61.45;28.80;;;0.90;99.90;;;0.16;64.90;98792.66;4983364;28;20058;-79
2022/01/10 09:44:55;;;;;;;68.43;31.67;;;1.00;99.90;;;0.21;65.50;98802.69;4964807;28;20549;-79
2022/01/10 09:47:21;;;;;;;64.55;28.27;;;1.00;99.90;;;0.27;65.40;98804.53;4967613;28;20098;-79
2022/01/10 09:49:47;;;;;;;64.75;30.65;;;1.00;99.90;;;0.28;65.12;98806.19;4964570;28;20166;-79
2022/01/10 09:52:15;;;;;;;61.15;30.00;;;1.10;99.90;;;0.40;65.00;98811.69;4963094;28;20490;-79
2022/01/10 09:54:41;;;;;;;69.78;33.08;;;1.10;99.90;;;0.62;64.76;98810.44;4965299;28;20042;-79
2022/01/10 09:57:07;;;;;;;81.95;41.65;;;1.30;99.90;;;0.70;64.93;98813.91;4967776;28;20057;-79
2022/01/10 09:59:33;;;;;;;67.25;30.13;;;1.40;99.90;;;0.72;64.33;98817.19;4964036;28;20518;-79
2022/01/10 10:01:59;;;;;;;56.03;26.27;;;1.50;99.90;;;0.79;64.20;98823.31;4965605;28;20057;-79
2022/01/10 10:04:25;;;;;;;57.33;26.85;;;1.50;99.90;;;0.79;63.73;98817.97;4966468;28;20062;-79
2022/01/10 10:06:51;;;;;;;51.38;27.17;;;1.60;99.90;;;0.77;63.68;98822.72;4968412;28;20117;-79
2022/01/10 10:09:17;;;;;;;61.08;29.77;;;1.60;99.90;;;0.85;63.73;98817.16;4980854;28;20117;-79